Charles M. Schulz Sonoma County Airport
KSTS : rendu visible

Aérodrome :











RETROUVEZ-NOUS SUR...

 
LOGIN :

S'inscrire | Disclaimer

   EN    FR    IT 

 









Légende :    VFR   VFR Marginal   IFR   IFR Intensif   IFR Très Intensif
Visi : 
Plafond : 
>= 8 km
>= 3000ft
5 à 8 km
1000 à 3000 ft
1500m à 5 km
500 à 1000 ft
800 à 1500m
200 à 500 ft
< 800m
< 200 ft
Symboles :   Orages  Brouillard  Fortes neiges  Fortes précipitations  Vent > 20 kt






- Altitude de l'aérodrome : 128 ft


KSTS - Charles M. Schulz Sonoma County

DERNIER METAR :
  • 170953Z AUTO 00000KT 3SM CLR 07/07 A3011 RMK AO2 SLP189 T00720072

METARs EXPIRÉS :
  • 170853Z AUTO 00000KT 10SM CLR 07/06 A3011 RMK AO2 SLP190 T00670061 50002
  • 170819Z AUTO 34003KT 8SM FEW002 07/06 A3011 RMK AO2 T00670061
  • 170812Z AUTO 00000KT 2SM FEW002 07/07 A3011 RMK AO2 T00720072
  • 170753Z AUTO 00000KT 10SM CLR 08/07 A3011 RMK AO2 SLP190 T00780072 402280050

TAF KSTS
Valide du 17 à 09h jusqu'au 18 à 06h UTC


170843Z 1709/1806 VRB03KT 4SM BR FEW002
TEMPO 1710/1711 1/4SM FG VV001
FM171100 00000KT 1/4SM FG VV001
FM171800 19008KT P6SM SKC
FM180300 19004KT P6SM SKC



MET'MAP, la Météo Aéronautique d'un coup d'oeil ! - Copyright ORBIFLY Décembre 2007 - Disclaimer

ORBIFLY MET'MAP TEAM :

Programmation & Développement : Alexandra Zaïnal
Conception & Développement : Baudouin d'Aumeries
Co-Programmation & Développement : Marc-Olivier Méhu
Soutien technique & logistique : Manuel Goepfert

Contact : metmap@orbifly.com




SOURCES & CREDITS :

   NOAA       Earth
Advisory